Wright Patterson Air Force Base
KFFO : now visible

Airfield :











YOU CAN JOIN US ON...

 
LOGIN :

Register | Disclaimer

   EN    FR    IT 

 









Legend :    VFR   Marginal VFR   IFR   Intensive IFR   Very Intensive IFR
Visi :
Ceiling :
>= 8 km
>= 3000ft
5 to 8 km
1000 to 3000 ft
1500m to 5 km
500 to 1000 ft
800 to 1500m
200 to 500 ft
< 800m
< 200 ft
Symbols :   Thunderstorms  Fog  Heavy snow  Heavy precipitations  Wind > 20 kt






- Airport Elevation : 823 ft


KFFO - Wright Patterson Air Force Base

CURRENT METAR :
  • 281556Z 21011KT 10SM BKN024 24/19 A2995 RMK AO2A SLP139 T02400188

EXPIRED METARs :
  • 281536Z 19011KT 10SM BKN022 BKN070 24/19 A2995 RMK AO2A SLP139
  • 281456Z 18011KT 10SM BKN016 OVC043 23/19 A2995 RMK AO2A BKN016 V SCT SLP139 60001 T02310192 58003
  • 281446Z 18010KT 10SM BKN016 BKN030 BKN070 22/19 A2995 RMK AO2A BKN016 V SCT SLP140
  • 281423Z 16010KT 10SM BKN014 OVC037 22/19 A2995 RMK AO2A SLP140
  • 281356Z 15007KT 10SM SCT011 BKN035 BKN070 21/19 A2995 RMK AO2A SLP140 T02120189
  • 281342Z 13008KT 10SM SCT009 BKN031 BKN070 21/19 A2995 RMK AO2A SLP140

TAF AMD TAF KFFO
Valid from the 28 at 14:00 until the 29 at 17:00 UTC


281446Z 2814/2917 13009KT 9999 BKN015 QNH2993INS
BECMG 2815/2816 20010G18KT 9000 -SHRA VCTS BKN030CB QNH2993INS
BECMG 2819/2820 22009KT 9999 NSW SCT025 QNH2989INS
BECMG 2911/2912 VRB06KT 8000 BR BKN015 OVC080 QNH2992INS
BECMG 2914/2915 22009KT 8000 -SHRA BKN020 OVC080 QNH2991INS TX27/2820Z TN17/2908Z
KZID FIR / North America



MET'MAP, your aeronautical weather chart ! - Copyright ORBIFLY December 2007 - Disclaimer

ORBIFLY MET'MAP TEAM :

Programming & Development : Alexandra Zaïnal
Concept & original design : Baudouin d'Aumeries
Assistance for programming : Marc-Olivier Méhu
Technical & hardware support : Manuel Goepfert

Contact : metmap@orbifly.com




SOURCES & CREDITS :

   NOAA       Earth
Advisory